createdAt,value
2022-12-25T00:00:26.181Z,98.73
2022-12-25T00:01:29.238Z,98.89
2022-12-25T00:02:32.694Z,98.91
2022-12-25T00:04:09.071Z,98.96
2022-12-25T00:05:12.298Z,98.90
2022-12-25T00:06:15.097Z,98.94
2022-12-25T00:07:49.661Z,98.88
2022-12-25T00:08:52.534Z,99.06
2022-12-25T00:09:55.272Z,98.92
2022-12-25T00:11:37.009Z,99.09
2022-12-25T00:12:39.901Z,99.16
2022-12-25T00:13:42.616Z,99.24
2022-12-25T00:15:17.277Z,99.42
2022-12-25T00:16:20.219Z,99.25
2022-12-25T00:17:23.463Z,99.36
2022-12-25T00:18:58.192Z,99.43
2022-12-25T00:20:01.041Z,99.45
2022-12-25T00:21:03.840Z,99.45
2022-12-25T00:22:38.518Z,99.36
2022-12-25T00:23:41.450Z,99.36
2022-12-25T00:24:44.326Z,99.29
2022-12-25T00:26:19.364Z,99.42
2022-12-25T00:27:22.266Z,99.31
2022-12-25T00:28:25.197Z,99.35
2022-12-25T00:29:59.951Z,99.31
2022-12-25T00:31:02.751Z,99.25
2022-12-25T00:32:06.472Z,99.23
2022-12-25T00:33:41.259Z,99.13
2022-12-25T00:34:44.183Z,99.07
2022-12-25T00:35:47.243Z,99.12
2022-12-25T00:37:28.285Z,99.07
2022-12-25T00:38:31.184Z,99.03
2022-12-25T00:39:34.261Z,98.98
2022-12-25T00:41:08.819Z,99.01
2022-12-25T00:42:11.750Z,98.96
2022-12-25T00:43:14.463Z,98.95
2022-12-25T00:44:49.086Z,99.02
2022-12-25T00:45:52.006Z,99.01
2022-12-25T00:46:55.526Z,98.99
2022-12-25T00:48:30.881Z,99.00
2022-12-25T00:49:33.658Z,98.99
2022-12-25T00:50:36.496Z,98.96
2022-12-25T00:52:11.196Z,99.05
2022-12-25T00:53:14.027Z,98.98
2022-12-25T00:54:16.936Z,99.03
2022-12-25T00:55:51.512Z,99.06
2022-12-25T00:56:54.327Z,99.05
2022-12-25T00:57:57.221Z,99.12
2022-12-25T00:59:31.797Z,99.29
2022-12-25T01:00:17.397Z,99.29
2022-12-25T01:01:20.794Z,99.19
2022-12-25T01:02:25.389Z,99.16
2022-12-25T01:04:01.496Z,99.22
2022-12-25T01:05:04.265Z,99.26
2022-12-25T01:06:07.160Z,99.30
2022-12-25T01:07:41.868Z,99.34
2022-12-25T01:08:46.160Z,99.34
2022-12-25T01:09:49.061Z,99.27
2022-12-25T01:11:23.689Z,99.26
2022-12-25T01:12:26.500Z,99.25
2022-12-25T01:13:29.364Z,99.24
2022-12-25T01:15:04.014Z,99.29
2022-12-25T01:16:07.019Z,99.32
2022-12-25T01:17:10.286Z,99.31
2022-12-25T01:18:53.507Z,99.37
2022-12-25T01:19:56.240Z,99.29
2022-12-25T01:20:58.960Z,99.31
2022-12-25T01:22:33.600Z,99.29
2022-12-25T01:23:36.344Z,99.27
2022-12-25T01:24:39.223Z,99.30
2022-12-25T01:26:13.854Z,99.37
2022-12-25T01:27:16.849Z,99.40
2022-12-25T01:28:19.665Z,99.36
2022-12-25T01:29:54.242Z,99.35
2022-12-25T01:30:57.096Z,99.38
2022-12-25T01:32:00.412Z,99.36
2022-12-25T01:33:35.547Z,99.34
2022-12-25T01:34:38.328Z,99.34
2022-12-25T01:35:47.957Z,99.28
2022-12-25T01:37:22.694Z,99.36
2022-12-25T01:38:25.464Z,99.37
2022-12-25T01:39:28.386Z,99.44
2022-12-25T01:41:03.106Z,99.31
2022-12-25T01:42:05.952Z,99.40
2022-12-25T01:43:12.633Z,99.41
2022-12-25T01:44:50.213Z,99.44
2022-12-25T01:45:53.306Z,99.49
2022-12-25T01:46:56.527Z,99.55
2022-12-25T01:48:31.336Z,99.59
2022-12-25T01:49:34.052Z,99.56
2022-12-25T01:50:36.860Z,99.56
2022-12-25T01:52:11.536Z,99.70
2022-12-25T01:53:21.325Z,99.74
2022-12-25T01:54:24.176Z,99.88
2022-12-25T01:55:58.748Z,99.74
2022-12-25T01:57:01.641Z,99.89
2022-12-25T01:58:04.376Z,99.89
2022-12-25T01:59:39.075Z,99.84
2022-12-25T02:00:18.065Z,99.80
2022-12-25T02:01:21.395Z,99.76
2022-12-25T02:02:25.448Z,99.71
2022-12-25T02:04:01.354Z,99.72
2022-12-25T02:05:04.094Z,99.68
2022-12-25T02:06:07.035Z,99.71
2022-12-25T02:07:41.697Z,99.73
2022-12-25T02:08:44.546Z,99.74
2022-12-25T02:09:47.403Z,99.75
2022-12-25T02:11:21.954Z,99.66
2022-12-25T02:12:24.784Z,99.70
2022-12-25T02:13:27.448Z,99.64
2022-12-25T02:15:10.389Z,99.61
2022-12-25T02:16:13.300Z,99.73
2022-12-25T02:17:39.328Z,99.74
2022-12-25T02:19:14.108Z,99.63
2022-12-25T02:20:16.912Z,99.70
2022-12-25T02:21:19.830Z,99.62
2022-12-25T02:22:54.503Z,99.63
2022-12-25T02:23:57.405Z,99.61
2022-12-25T02:25:00.232Z,99.81
2022-12-25T02:26:34.860Z,99.69
2022-12-25T02:27:37.740Z,99.98
2022-12-25T02:28:45.414Z,99.99
2022-12-25T02:30:20.749Z,99.84
2022-12-25T02:31:23.647Z,99.69
2022-12-25T02:32:26.991Z,99.74
2022-12-25T02:34:02.879Z,99.82
2022-12-25T02:35:06.494Z,99.98
2022-12-25T02:36:09.303Z,99.82
2022-12-25T02:37:44.002Z,99.95
2022-12-25T02:38:46.843Z,99.87
2022-12-25T02:39:49.798Z,99.98
2022-12-25T02:41:24.524Z,99.99
2022-12-25T02:42:27.350Z,99.98
2022-12-25T02:43:30.046Z,99.93
2022-12-25T02:45:04.676Z,99.96
2022-12-25T02:46:07.549Z,99.95
2022-12-25T02:47:10.982Z,99.92
2022-12-25T02:48:45.591Z,99.84
2022-12-25T02:49:48.405Z,99.87
2022-12-25T02:50:51.297Z,99.88
2022-12-25T02:52:25.824Z,99.82
2022-12-25T02:53:28.669Z,99.81
2022-12-25T02:54:31.595Z,99.78
2022-12-25T02:56:06.175Z,99.69
2022-12-25T02:57:09.072Z,99.63
2022-12-25T02:58:11.850Z,99.59
2022-12-25T02:59:46.514Z,99.62
2022-12-25T03:00:17.586Z,99.59
2022-12-25T03:01:20.704Z,99.54
2022-12-25T03:02:24.644Z,99.48
2022-12-25T03:03:59.681Z,99.46
2022-12-25T03:05:02.497Z,99.43
2022-12-25T03:06:05.400Z,99.44
2022-12-25T03:07:40.002Z,99.42
2022-12-25T03:08:42.921Z,99.40
2022-12-25T03:09:45.710Z,99.39
2022-12-25T03:11:20.305Z,99.47
2022-12-25T03:12:23.065Z,99.46
2022-12-25T03:13:25.855Z,99.45
2022-12-25T03:15:00.477Z,99.57
2022-12-25T03:16:03.320Z,99.53
2022-12-25T03:17:06.676Z,99.55
2022-12-25T03:18:41.420Z,99.51
2022-12-25T03:19:44.183Z,99.62
2022-12-25T03:20:47.039Z,99.68
2022-12-25T03:22:21.611Z,99.67
2022-12-25T03:23:24.500Z,99.66
2022-12-25T03:24:27.353Z,99.60
2022-12-25T03:26:02.096Z,99.68
2022-12-25T03:27:04.914Z,99.74
2022-12-25T03:28:07.671Z,99.74
2022-12-25T03:29:42.506Z,99.76
2022-12-25T03:30:45.449Z,99.87
2022-12-25T03:31:48.724Z,99.91
2022-12-25T03:33:50.825Z,99.87
2022-12-25T03:34:53.688Z,99.90
2022-12-25T03:35:56.507Z,99.89
2022-12-25T03:37:31.024Z,99.93
2022-12-25T03:38:33.754Z,99.99
2022-12-25T03:39:36.581Z,99.99
2022-12-25T03:41:11.129Z,99.99
2022-12-25T03:42:14.214Z,99.99
2022-12-25T03:43:17.052Z,99.99
2022-12-25T03:44:51.656Z,99.99
2022-12-25T03:45:54.667Z,99.99
2022-12-25T03:46:58.192Z,99.99
2022-12-25T03:48:32.786Z,99.99
2022-12-25T03:49:35.588Z,99.99
2022-12-25T03:50:38.546Z,99.99
2022-12-25T03:52:13.217Z,99.99
2022-12-25T03:53:15.979Z,99.99
2022-12-25T03:54:18.803Z,99.99
2022-12-25T03:55:53.311Z,99.99
2022-12-25T03:56:56.231Z,99.99
2022-12-25T03:57:59.051Z,99.99
2022-12-25T03:59:33.698Z,99.99
2022-12-25T04:00:18.279Z,99.99
2022-12-25T04:01:21.308Z,99.99
2022-12-25T04:02:26.085Z,99.99
2022-12-25T04:04:02.135Z,99.99
2022-12-25T04:05:04.988Z,99.99
2022-12-25T04:06:07.843Z,99.99
2022-12-25T04:07:42.422Z,99.99
2022-12-25T04:08:45.454Z,99.99
2022-12-25T04:09:48.139Z,99.99
2022-12-25T04:11:22.838Z,99.99
2022-12-25T04:12:25.851Z,99.99
2022-12-25T04:13:28.681Z,99.99
2022-12-25T04:15:03.417Z,99.99
2022-12-25T04:16:06.467Z,99.99
2022-12-25T04:17:09.627Z,99.99
2022-12-25T04:18:44.363Z,99.99
2022-12-25T04:19:47.150Z,99.99
2022-12-25T04:20:49.991Z,99.99
2022-12-25T04:22:24.519Z,99.99
2022-12-25T04:23:27.331Z,99.99
2022-12-25T04:24:30.095Z,99.99
2022-12-25T04:26:04.726Z,99.99
2022-12-25T04:27:07.774Z,99.99
2022-12-25T04:28:10.582Z,99.99
2022-12-25T04:29:46.611Z,99.99
2022-12-25T04:30:49.518Z,99.99
2022-12-25T04:31:52.700Z,99.99
2022-12-25T04:33:27.397Z,99.99
2022-12-25T04:34:30.084Z,99.99
2022-12-25T04:35:33.015Z,99.99
2022-12-25T04:37:07.848Z,99.99
2022-12-25T04:38:10.575Z,99.99
2022-12-25T04:39:13.441Z,99.99
2022-12-25T04:40:48.289Z,99.99
2022-12-25T04:41:51.116Z,99.99
2022-12-25T04:42:53.827Z,99.99
2022-12-25T04:44:28.410Z,99.99
2022-12-25T04:45:31.416Z,99.99
2022-12-25T04:46:34.508Z,99.99
2022-12-25T04:48:09.602Z,99.99
2022-12-25T04:49:12.394Z,99.99
2022-12-25T04:50:15.436Z,99.99
2022-12-25T04:51:50.082Z,99.99
2022-12-25T04:52:52.887Z,99.99
2022-12-25T04:53:55.787Z,99.99
2022-12-25T04:55:30.536Z,99.99
2022-12-25T04:56:33.447Z,99.99
2022-12-25T04:57:43.111Z,99.99
2022-12-25T04:59:17.720Z,99.99
2022-12-25T05:00:18.093Z,99.99
2022-12-25T05:01:21.333Z,99.99
2022-12-25T05:02:25.767Z,99.99
2022-12-25T05:04:02.574Z,99.99
2022-12-25T05:05:47.093Z,99.99
2022-12-25T05:06:50.265Z,99.99
2022-12-25T05:07:53.164Z,99.99
2022-12-25T05:09:28.111Z,99.99
2022-12-25T05:10:31.192Z,99.99
2022-12-25T05:11:33.941Z,99.99
2022-12-25T05:13:08.606Z,99.99
2022-12-25T05:14:11.550Z,99.99
2022-12-25T05:15:14.700Z,99.99
2022-12-25T05:16:49.860Z,99.99
2022-12-25T05:17:52.645Z,99.99
2022-12-25T05:18:55.602Z,99.99
2022-12-25T05:20:33.433Z,99.99
2022-12-25T05:21:41.258Z,99.99
2022-12-25T05:22:44.192Z,99.99
2022-12-25T05:24:19.073Z,99.99
2022-12-25T05:25:21.985Z,99.99
2022-12-25T05:26:24.878Z,99.99
2022-12-25T05:27:59.934Z,99.99
2022-12-25T05:29:02.703Z,99.99
2022-12-25T05:30:05.809Z,99.99
2022-12-25T05:31:41.033Z,99.99
2022-12-25T05:32:43.922Z,99.99
2022-12-25T05:33:46.817Z,99.99
2022-12-25T05:35:21.598Z,99.99
2022-12-25T05:36:24.578Z,99.99
2022-12-25T05:37:27.461Z,99.99
2022-12-25T05:39:02.023Z,99.99
2022-12-25T05:40:04.994Z,99.99
2022-12-25T05:41:07.788Z,99.99
2022-12-25T05:42:47.389Z,99.99
2022-12-25T05:43:50.268Z,99.99
2022-12-25T05:44:53.159Z,99.99
2022-12-25T05:46:27.868Z,99.99
2022-12-25T05:47:31.407Z,99.99
2022-12-25T05:48:34.319Z,99.99
2022-12-25T05:50:09.093Z,99.99
2022-12-25T05:51:11.911Z,99.99
2022-12-25T05:52:14.717Z,99.99
2022-12-25T05:53:57.777Z,99.99
2022-12-25T05:55:01.252Z,99.99
2022-12-25T05:56:04.146Z,99.99
2022-12-25T05:57:38.966Z,99.99
2022-12-25T05:58:41.863Z,99.99
2022-12-25T05:59:44.740Z,99.99
2022-12-25T06:00:17.819Z,99.99
2022-12-25T06:01:20.818Z,99.99
2022-12-25T06:02:25.201Z,99.99
2022-12-25T06:04:05.810Z,99.99
2022-12-25T06:05:13.217Z,99.99
2022-12-25T06:06:16.202Z,99.99
2022-12-25T06:07:50.905Z,99.99
2022-12-25T06:08:53.902Z,99.99
2022-12-25T06:09:56.864Z,99.99
2022-12-25T06:11:31.463Z,99.99
2022-12-25T06:12:34.329Z,99.99
2022-12-25T06:13:37.057Z,99.99
2022-12-25T06:15:11.760Z,99.99
2022-12-25T06:16:14.636Z,99.99
2022-12-25T06:17:24.530Z,99.99
2022-12-25T06:18:59.204Z,99.99
2022-12-25T06:20:02.064Z,99.99
2022-12-25T06:21:04.891Z,99.99
2022-12-25T06:22:39.849Z,99.99
2022-12-25T06:23:43.573Z,99.99
2022-12-25T06:24:47.203Z,99.99
2022-12-25T06:26:22.220Z,99.99
2022-12-25T06:27:24.977Z,99.99
2022-12-25T06:28:27.903Z,99.99
2022-12-25T06:30:03.133Z,99.99
2022-12-25T06:31:05.968Z,99.99
2022-12-25T06:32:09.207Z,99.99
2022-12-25T06:33:43.759Z,99.99
2022-12-25T06:34:46.703Z,99.99
2022-12-25T06:35:49.574Z,99.99
2022-12-25T06:37:24.159Z,99.99
2022-12-25T06:38:27.251Z,99.99
2022-12-25T06:39:30.102Z,99.99
2022-12-25T06:41:04.985Z,99.99
2022-12-25T06:42:08.006Z,99.98
2022-12-25T06:43:10.812Z,99.99
2022-12-25T06:44:45.689Z,99.99
2022-12-25T06:45:48.512Z,99.99
2022-12-25T06:46:51.701Z,99.99
2022-12-25T06:48:26.514Z,99.99
2022-12-25T06:49:29.315Z,99.98
2022-12-25T06:50:32.311Z,99.99
2022-12-25T06:52:06.918Z,99.93
2022-12-25T06:53:09.819Z,99.93
2022-12-25T06:54:20.468Z,99.92
2022-12-25T06:55:55.196Z,99.88
2022-12-25T06:56:58.364Z,99.87
2022-12-25T06:58:01.428Z,99.85
2022-12-25T06:59:36.080Z,99.85
2022-12-25T07:00:17.428Z,99.96
2022-12-25T07:01:21.272Z,99.96
2022-12-25T07:02:25.432Z,99.90
2022-12-25T07:04:01.304Z,99.98
2022-12-25T07:05:04.217Z,99.92
2022-12-25T07:06:07.235Z,99.98
2022-12-25T07:07:49.349Z,99.96
2022-12-25T07:08:52.178Z,99.99
2022-12-25T07:09:55.145Z,99.99
2022-12-25T07:11:30.033Z,99.98
2022-12-25T07:12:32.846Z,99.99
2022-12-25T07:13:35.748Z,99.99
2022-12-25T07:15:16.024Z,99.99
2022-12-25T07:16:18.900Z,99.99
2022-12-25T07:17:22.384Z,99.99
2022-12-25T07:18:56.949Z,99.99
2022-12-25T07:19:59.888Z,99.99
2022-12-25T07:21:02.682Z,99.99
2022-12-25T07:22:37.298Z,99.99
2022-12-25T07:23:40.096Z,99.99
2022-12-25T07:24:42.926Z,99.99
2022-12-25T07:26:23.612Z,99.99
2022-12-25T07:27:26.438Z,99.99
2022-12-25T07:28:29.268Z,99.99
2022-12-25T07:30:04.111Z,99.99
2022-12-25T07:31:06.932Z,99.99
2022-12-25T07:32:10.831Z,99.99
2022-12-25T07:33:45.583Z,99.99
2022-12-25T07:34:48.547Z,99.99
2022-12-25T07:35:51.362Z,99.99
2022-12-25T07:37:30.657Z,99.99
2022-12-25T07:38:33.556Z,99.99
2022-12-25T07:39:36.510Z,99.99
2022-12-25T07:41:11.308Z,99.99
2022-12-25T07:42:14.124Z,99.99
2022-12-25T07:43:22.788Z,99.99
2022-12-25T07:44:57.459Z,99.99
2022-12-25T07:46:00.432Z,99.96
2022-12-25T07:47:04.210Z,99.99
2022-12-25T07:48:46.849Z,99.99
2022-12-25T07:49:49.739Z,99.99
2022-12-25T07:50:52.697Z,99.99
2022-12-25T07:52:27.413Z,99.99
2022-12-25T07:53:38.832Z,99.99
2022-12-25T07:54:41.633Z,99.99
2022-12-25T07:56:16.445Z,99.99
2022-12-25T07:57:19.291Z,99.99
2022-12-25T07:58:28.969Z,99.99
2022-12-25T08:00:17.935Z,99.99
2022-12-25T08:01:21.454Z,99.99
2022-12-25T08:02:26.713Z,99.99
2022-12-25T08:04:04.681Z,99.99
2022-12-25T08:05:08.105Z,99.99
2022-12-25T08:06:10.936Z,99.99
2022-12-25T08:07:45.768Z,99.99
2022-12-25T08:08:55.119Z,99.99
2022-12-25T08:09:58.033Z,99.99
2022-12-25T08:11:32.838Z,99.99
2022-12-25T08:12:35.815Z,99.99
2022-12-25T08:13:38.731Z,99.99
2022-12-25T08:15:13.480Z,99.99
2022-12-25T08:16:16.438Z,99.99
2022-12-25T08:17:20.152Z,99.99
2022-12-25T08:18:54.648Z,99.99
2022-12-25T08:19:57.687Z,99.99
2022-12-25T08:21:00.513Z,99.99
2022-12-25T08:22:35.248Z,99.99
2022-12-25T08:23:38.194Z,99.99
2022-12-25T08:24:41.207Z,99.99
2022-12-25T08:26:15.945Z,99.99
2022-12-25T08:27:18.884Z,99.99
2022-12-25T08:28:21.817Z,99.99
2022-12-25T08:29:56.538Z,99.99
2022-12-25T08:30:59.553Z,99.99
2022-12-25T08:32:02.910Z,99.99
2022-12-25T08:33:37.653Z,99.99
2022-12-25T08:34:40.774Z,99.99
2022-12-25T08:35:43.761Z,99.99
2022-12-25T08:37:18.546Z,99.99
2022-12-25T08:38:21.537Z,99.99
2022-12-25T08:39:24.264Z,99.99
2022-12-25T08:40:59.156Z,99.99
2022-12-25T08:42:02.016Z,99.99
2022-12-25T08:43:04.863Z,99.99
2022-12-25T08:44:39.537Z,99.99
2022-12-25T08:45:42.439Z,99.99
2022-12-25T08:46:47.336Z,99.99
2022-12-25T08:48:22.176Z,99.99
2022-12-25T08:49:25.270Z,99.99
2022-12-25T08:50:28.836Z,99.99
2022-12-25T08:52:03.453Z,99.99
2022-12-25T08:53:06.466Z,99.99
2022-12-25T08:54:09.516Z,99.99
2022-12-25T08:55:44.127Z,99.99
2022-12-25T08:56:46.960Z,99.99
2022-12-25T08:57:56.051Z,99.99
2022-12-25T08:59:30.815Z,99.99
2022-12-25T09:00:17.676Z,99.99
2022-12-25T09:01:21.328Z,99.99
2022-12-25T09:02:25.651Z,99.99
2022-12-25T09:04:01.895Z,99.99
2022-12-25T09:05:04.842Z,99.99
2022-12-25T09:06:07.917Z,99.99
2022-12-25T09:07:42.830Z,99.99
2022-12-25T09:08:54.043Z,99.99
2022-12-25T09:09:56.840Z,99.99
2022-12-25T09:11:31.441Z,99.99
2022-12-25T09:12:34.174Z,99.99
2022-12-25T09:13:37.199Z,99.99
2022-12-25T09:15:11.910Z,99.99
2022-12-25T09:16:14.956Z,99.99
2022-12-25T09:17:18.357Z,99.99
2022-12-25T09:18:53.083Z,99.99
2022-12-25T09:19:55.934Z,99.99
2022-12-25T09:20:58.810Z,99.99
2022-12-25T09:22:33.489Z,99.99
2022-12-25T09:23:36.367Z,99.99
2022-12-25T09:24:39.335Z,99.99
2022-12-25T09:26:14.165Z,99.99
2022-12-25T09:27:17.137Z,99.99
2022-12-25T09:28:19.936Z,99.99
2022-12-25T09:30:02.764Z,99.99
2022-12-25T09:31:05.740Z,99.99
2022-12-25T09:32:09.358Z,99.99
2022-12-25T09:33:43.924Z,99.99
2022-12-25T09:34:47.277Z,99.99
2022-12-25T09:35:50.287Z,99.99
2022-12-25T09:37:25.752Z,99.99
2022-12-25T09:38:28.642Z,99.99
2022-12-25T09:39:31.490Z,99.99
2022-12-25T09:41:15.324Z,99.99
2022-12-25T09:42:18.133Z,99.99
2022-12-25T09:43:20.852Z,99.99
2022-12-25T09:44:55.872Z,99.99
2022-12-25T09:45:58.789Z,99.99
2022-12-25T09:47:02.130Z,99.99
2022-12-25T09:48:37.108Z,99.99
2022-12-25T09:49:39.946Z,99.99
2022-12-25T09:50:42.859Z,99.99
2022-12-25T09:52:17.616Z,99.99
2022-12-25T09:53:20.488Z,99.99
2022-12-25T09:54:23.385Z,99.99
2022-12-25T09:56:06.193Z,99.99
2022-12-25T09:57:09.156Z,99.99
2022-12-25T09:58:11.967Z,99.99
2022-12-25T09:59:46.814Z,99.99
2022-12-25T10:00:18.278Z,99.99
2022-12-25T10:01:21.548Z,99.99
2022-12-25T10:02:25.860Z,99.99
2022-12-25T10:04:02.841Z,99.99
2022-12-25T10:05:05.892Z,99.99
2022-12-25T10:06:08.762Z,99.99
2022-12-25T10:07:43.678Z,99.99
2022-12-25T10:08:46.709Z,99.99
2022-12-25T10:09:49.599Z,99.99
2022-12-25T10:11:24.269Z,99.99
2022-12-25T10:12:27.319Z,99.99
2022-12-25T10:13:30.086Z,99.99
2022-12-25T10:15:04.856Z,99.99
2022-12-25T10:16:07.836Z,99.99
2022-12-25T10:17:11.068Z,99.99
2022-12-25T10:18:45.803Z,99.99
2022-12-25T10:19:48.703Z,99.99
2022-12-25T10:20:51.703Z,99.99
2022-12-25T10:22:32.906Z,99.99
2022-12-25T10:23:35.987Z,99.99
2022-12-25T10:24:39.045Z,99.99
2022-12-25T10:26:13.744Z,99.99
2022-12-25T10:27:16.696Z,99.99
2022-12-25T10:28:19.491Z,99.99
2022-12-25T10:29:54.285Z,99.99
2022-12-25T10:30:57.327Z,99.99
2022-12-25T10:32:00.904Z,99.99
2022-12-25T10:33:35.586Z,99.99
2022-12-25T10:34:38.433Z,99.99
2022-12-25T10:35:41.632Z,99.99
2022-12-25T10:37:16.513Z,99.99
2022-12-25T10:38:19.332Z,99.99
2022-12-25T10:39:22.505Z,99.99
2022-12-25T10:41:04.399Z,99.99
2022-12-25T10:42:07.404Z,99.99
2022-12-25T10:43:10.212Z,99.99
2022-12-25T10:44:44.992Z,99.99
2022-12-25T10:45:47.919Z,99.99
2022-12-25T10:46:51.223Z,99.99
2022-12-25T10:48:40.147Z,99.99
2022-12-25T10:49:43.128Z,99.99
2022-12-25T10:50:45.963Z,99.99
2022-12-25T10:52:20.735Z,99.99
2022-12-25T10:53:23.887Z,99.99
2022-12-25T10:54:26.800Z,99.99
2022-12-25T10:56:09.123Z,99.99
2022-12-25T10:57:12.106Z,99.99
2022-12-25T10:58:15.416Z,99.99
2022-12-25T10:59:50.122Z,99.99
2022-12-25T11:00:17.788Z,99.99
2022-12-25T11:01:20.703Z,99.99
2022-12-25T11:02:24.787Z,99.99
2022-12-25T11:04:02.467Z,99.99
2022-12-25T11:05:05.498Z,99.99
2022-12-25T11:06:08.577Z,99.99
2022-12-25T11:07:43.359Z,99.99
2022-12-25T11:08:46.376Z,99.99
2022-12-25T11:09:49.447Z,99.99
2022-12-25T11:11:31.960Z,99.99
2022-12-25T11:12:34.813Z,99.99
2022-12-25T11:13:37.875Z,99.99
2022-12-25T11:15:12.752Z,99.99
2022-12-25T11:16:15.591Z,99.99
2022-12-25T11:17:19.189Z,99.99
2022-12-25T11:18:54.078Z,99.99
2022-12-25T11:19:57.057Z,99.99
2022-12-25T11:21:00.240Z,99.99
2022-12-25T11:22:35.124Z,99.99
2022-12-25T11:23:38.141Z,99.99
2022-12-25T11:24:41.248Z,99.99
2022-12-25T11:26:16.187Z,99.99
2022-12-25T11:27:19.053Z,99.99
2022-12-25T11:28:22.130Z,99.99
2022-12-25T11:29:56.905Z,99.99
2022-12-25T11:31:07.618Z,99.99
2022-12-25T11:32:11.072Z,99.99
2022-12-25T11:33:45.846Z,99.99
2022-12-25T11:34:48.743Z,99.99
2022-12-25T11:35:51.740Z,99.99
2022-12-25T11:37:26.464Z,99.99
2022-12-25T11:38:29.558Z,99.99
2022-12-25T11:39:32.376Z,99.99
2022-12-25T11:41:07.119Z,99.99
2022-12-25T11:42:10.035Z,99.99
2022-12-25T11:43:14.137Z,99.99
2022-12-25T11:44:49.142Z,99.99
2022-12-25T11:45:52.088Z,99.99
2022-12-25T11:46:55.274Z,99.99
2022-12-25T11:48:30.565Z,99.99
2022-12-25T11:49:33.400Z,99.99
2022-12-25T11:50:47.033Z,99.99
2022-12-25T11:52:21.812Z,99.99
2022-12-25T11:53:24.835Z,99.99
2022-12-25T11:54:27.894Z,99.99
2022-12-25T11:56:03.388Z,99.99
2022-12-25T11:57:06.324Z,99.99
2022-12-25T11:58:09.236Z,99.99
2022-12-25T11:59:43.966Z,99.99
2022-12-25T12:00:17.409Z,99.99
2022-12-25T12:01:20.175Z,99.99
2022-12-25T12:02:24.113Z,99.99
2022-12-25T12:04:01.492Z,99.99
2022-12-25T12:05:11.413Z,99.99
2022-12-25T12:06:14.486Z,99.99
2022-12-25T12:07:49.227Z,99.99
2022-12-25T12:08:52.196Z,99.99
2022-12-25T12:09:55.128Z,99.99
2022-12-25T12:11:29.923Z,99.99
2022-12-25T12:12:32.920Z,99.99
2022-12-25T12:13:44.022Z,99.99
2022-12-25T12:15:18.669Z,99.99
2022-12-25T12:16:21.667Z,99.99
2022-12-25T12:17:24.763Z,99.99
2022-12-25T12:18:59.515Z,99.99
2022-12-25T12:20:02.564Z,99.99
2022-12-25T12:21:05.567Z,99.99
2022-12-25T12:22:40.316Z,99.99
2022-12-25T12:23:43.114Z,99.99
2022-12-25T12:24:46.032Z,99.99
2022-12-25T12:26:21.024Z,99.99
2022-12-25T12:27:24.025Z,99.99
2022-12-25T12:28:26.980Z,99.99
2022-12-25T12:30:01.725Z,99.99
2022-12-25T12:31:04.621Z,99.99
2022-12-25T12:32:08.139Z,99.99
2022-12-25T12:33:42.954Z,99.99
2022-12-25T12:34:46.591Z,99.99
2022-12-25T12:35:49.492Z,99.99
2022-12-25T12:37:30.830Z,99.99
2022-12-25T12:38:33.649Z,99.99
2022-12-25T12:39:36.676Z,99.99
2022-12-25T12:41:11.445Z,99.99
2022-12-25T12:42:14.313Z,99.99
2022-12-25T12:43:17.277Z,99.99
2022-12-25T12:44:51.964Z,99.99
2022-12-25T12:45:55.030Z,99.99
2022-12-25T12:47:00.292Z,99.99
2022-12-25T12:48:35.148Z,99.99
2022-12-25T12:49:38.052Z,99.99
2022-12-25T12:50:41.128Z,99.99
2022-12-25T12:52:16.009Z,99.99
2022-12-25T12:53:18.953Z,99.99
2022-12-25T12:54:22.055Z,99.99
2022-12-25T12:55:56.771Z,99.99
2022-12-25T12:56:59.629Z,99.99
2022-12-25T12:58:02.588Z,99.99
2022-12-25T12:59:37.362Z,99.99
2022-12-25T13:00:18.045Z,99.99
2022-12-25T13:01:21.372Z,99.99
2022-12-25T13:02:25.439Z,99.99
2022-12-25T13:04:01.838Z,99.99
2022-12-25T13:05:04.794Z,99.99
2022-12-25T13:06:15.006Z,99.99
2022-12-25T13:07:50.006Z,99.99
2022-12-25T13:08:52.821Z,99.99
2022-12-25T13:09:55.876Z,99.99
2022-12-25T13:11:30.809Z,99.99
2022-12-25T13:12:33.617Z,99.99
2022-12-25T13:13:36.501Z,99.99
2022-12-25T13:15:11.243Z,99.99
2022-12-25T13:16:14.304Z,99.99
2022-12-25T13:17:17.397Z,99.99
2022-12-25T13:18:51.966Z,99.99
2022-12-25T13:19:54.799Z,99.99
2022-12-25T13:20:57.699Z,99.99
2022-12-25T13:22:32.390Z,99.99
2022-12-25T13:23:43.998Z,99.99
2022-12-25T13:24:46.929Z,99.99
2022-12-25T13:26:21.829Z,99.99
2022-12-25T13:27:24.674Z,99.99
2022-12-25T13:28:27.556Z,99.99
2022-12-25T13:30:03.471Z,99.99
2022-12-25T13:31:06.435Z,99.99
2022-12-25T13:32:09.765Z,99.99
2022-12-25T13:33:44.941Z,99.99
2022-12-25T13:34:47.846Z,99.99
2022-12-25T13:35:50.672Z,99.99
2022-12-25T13:37:25.352Z,99.99
2022-12-25T13:38:28.325Z,99.99
2022-12-25T13:39:31.244Z,99.99
2022-12-25T13:41:05.940Z,99.99
2022-12-25T13:42:08.758Z,99.99
2022-12-25T13:43:12.065Z,99.99
2022-12-25T13:44:46.878Z,99.99
2022-12-25T13:45:50.134Z,99.99
2022-12-25T13:46:53.625Z,99.99
2022-12-25T13:48:35.566Z,99.99
2022-12-25T13:49:38.621Z,99.99
2022-12-25T13:50:42.484Z,99.99
2022-12-25T13:52:17.881Z,99.99
2022-12-25T13:53:20.787Z,99.99
2022-12-25T13:54:23.562Z,99.99
2022-12-25T13:55:58.316Z,99.99
2022-12-25T13:57:01.055Z,99.99
2022-12-25T13:58:04.006Z,99.99
2022-12-25T13:59:38.796Z,99.99
2022-12-25T14:00:17.583Z,99.99
2022-12-25T14:01:20.736Z,99.99
2022-12-25T14:02:25.015Z,99.99
2022-12-25T14:04:01.311Z,99.99
2022-12-25T14:05:04.391Z,99.99
2022-12-25T14:06:07.372Z,99.99
2022-12-25T14:07:42.175Z,99.99
2022-12-25T14:08:45.131Z,99.99
2022-12-25T14:09:47.985Z,99.99
2022-12-25T14:11:22.718Z,99.99
2022-12-25T14:12:25.558Z,99.99
2022-12-25T14:13:28.545Z,99.99
2022-12-25T14:15:03.348Z,99.99
2022-12-25T14:16:06.236Z,99.99
2022-12-25T14:17:09.587Z,99.99
2022-12-25T14:18:44.392Z,99.99
2022-12-25T14:19:47.355Z,99.99
2022-12-25T14:20:57.712Z,99.99
2022-12-25T14:22:32.443Z,99.99
2022-12-25T14:23:35.304Z,99.99
2022-12-25T14:24:38.289Z,99.99
2022-12-25T14:26:13.121Z,99.99
2022-12-25T14:27:16.026Z,99.99
2022-12-25T14:28:18.892Z,99.99
2022-12-25T14:30:08.683Z,99.99
2022-12-25T14:31:11.984Z,99.99
2022-12-25T14:32:15.433Z,99.99
2022-12-25T14:33:50.133Z,99.99
2022-12-25T14:34:53.025Z,99.99
2022-12-25T14:36:03.631Z,99.99
2022-12-25T14:37:38.442Z,99.99
2022-12-25T14:38:41.299Z,99.99
2022-12-25T14:39:44.085Z,99.99
2022-12-25T14:41:24.236Z,99.99
2022-12-25T14:42:28.917Z,99.99
2022-12-25T14:43:31.836Z,99.99
2022-12-25T14:45:06.519Z,99.99
2022-12-25T14:46:09.640Z,99.99
2022-12-25T14:47:13.115Z,99.99
2022-12-25T14:48:47.797Z,99.99
2022-12-25T14:49:50.686Z,99.99
2022-12-25T14:50:53.521Z,99.99
2022-12-25T14:52:28.109Z,99.99
2022-12-25T14:53:31.115Z,99.99
2022-12-25T14:54:34.014Z,99.99
2022-12-25T14:56:08.704Z,99.99
2022-12-25T14:57:11.872Z,99.99
2022-12-25T14:58:14.846Z,99.99
2022-12-25T14:59:49.612Z,99.99
2022-12-25T15:00:18.301Z,99.99
2022-12-25T15:01:21.541Z,99.99
2022-12-25T15:02:26.199Z,99.99
2022-12-25T15:04:03.401Z,99.99
2022-12-25T15:05:06.297Z,99.99
2022-12-25T15:06:09.374Z,99.99
2022-12-25T15:07:44.704Z,99.99
2022-12-25T15:08:47.515Z,99.99
2022-12-25T15:09:50.315Z,99.99
2022-12-25T15:12:26.047Z,99.99
2022-12-25T15:13:28.825Z,99.99
2022-12-25T15:14:31.887Z,99.99
2022-12-25T15:16:06.849Z,99.99
2022-12-25T15:17:10.352Z,99.99
2022-12-25T15:18:13.168Z,99.99
2022-12-25T15:19:48.068Z,99.99
2022-12-25T15:20:50.944Z,99.99
2022-12-25T15:21:53.780Z,99.99
2022-12-25T15:24:06.756Z,99.99
2022-12-25T15:25:14.192Z,99.99
2022-12-25T15:26:17.358Z,99.99
2022-12-25T15:27:52.853Z,99.99
2022-12-25T15:29:02.612Z,99.99
2022-12-25T15:30:51.701Z,99.99
2022-12-25T15:32:26.830Z,99.99
2022-12-25T15:33:30.013Z,99.99
2022-12-25T15:34:41.047Z,99.99
2022-12-25T15:36:15.819Z,99.99
2022-12-25T15:37:18.615Z,99.99
2022-12-25T15:38:21.627Z,99.99
2022-12-25T15:39:57.472Z,99.99
2022-12-25T15:41:03.848Z,99.99
2022-12-25T15:42:06.667Z,99.99
2022-12-25T15:43:51.627Z,99.99
2022-12-25T15:44:54.715Z,99.99
2022-12-25T15:45:57.679Z,99.99
2022-12-25T15:47:33.201Z,99.99
2022-12-25T15:48:36.087Z,99.99
2022-12-25T15:49:38.867Z,99.99